Time;durP1;ratioP1;P1;durP2;ratioP2;P2;SDS_P1;SDS_P2;PMS_P1;PMS_P2;Temp;Humidity;BMP_temperature;BMP_pressure;BME280_temperature;BME280_humidity;BME280_pressure;Samples;Min_cycle;Max_cycle;Signal;HPM_P1;HPM_P2
2023/05/31 00:01:35;;;;;;;6.95;4.38;;;14.20;82.20;;;;;;5020753;28;20038;-89
2023/05/31 00:04:02;;;;;;;8.57;4.28;;;14.20;82.40;;;;;;5001700;28;20030;-89
2023/05/31 00:06:29;;;;;;;7.80;4.55;;;14.10;82.40;;;;;;5018845;28;20491;-92
2023/05/31 00:08:54;;;;;;;9.88;3.90;;;14.10;82.60;;;;;;5021119;28;20022;-85
2023/05/31 00:11:20;;;;;;;6.85;4.13;;;14.10;83.20;;;;;;5014398;28;20026;-83
2023/05/31 00:13:46;;;;;;;11.10;4.78;;;14.10;83.60;;;;;;4996956;28;20029;-85
2023/05/31 00:16:13;;;;;;;9.05;3.97;;;14.10;84.10;;;;;;5024303;28;20028;-84
2023/05/31 00:18:39;;;;;;;7.77;4.23;;;14.00;84.30;;;;;;5035807;28;20018;-87
2023/05/31 00:21:05;;;;;;;8.27;4.65;;;14.00;84.70;;;;;;5021492;28;20456;-85
2023/05/31 00:23:31;;;;;;;9.13;4.70;;;13.90;85.10;;;;;;5019785;28;20029;-85
2023/05/31 00:25:57;;;;;;;8.68;4.65;;;13.90;85.50;;;;;;5019404;28;20268;-88
2023/05/31 00:28:23;;;;;;;7.55;4.57;;;13.80;86.80;;;;;;5015524;28;20152;-86
2023/05/31 00:30:49;;;;;;;7.43;3.90;;;13.80;86.30;;;;;;5016847;28;20549;-84
2023/05/31 00:33:15;;;;;;;7.40;4.40;;;13.70;86.60;;;;;;5018120;28;20081;-85
2023/05/31 00:35:41;;;;;;;9.02;4.38;;;13.70;86.70;;;;;;5016529;28;20124;-86
2023/05/31 00:38:07;;;;;;;6.00;4.18;;;13.70;87.30;;;;;;5014968;28;20053;-87
2023/05/31 00:40:33;;;;;;;9.02;4.30;;;13.70;87.30;;;;;;5018137;28;20085;-86
2023/05/31 00:42:59;;;;;;;5.75;3.80;;;13.70;87.20;;;;;;5026264;28;20045;-84
2023/05/31 00:45:28;;;;;;;7.28;3.97;;;13.70;87.80;;;;;;5032442;28;20026;-86
2023/05/31 00:47:55;;;;;;;5.70;4.28;;;13.60;87.80;;;;;;5022096;28;20021;-87
2023/05/31 00:50:21;;;;;;;5.15;3.88;;;13.60;87.80;;;;;;5017716;28;20032;-85
2023/05/31 00:52:50;;;;;;;10.00;4.63;;;13.50;87.80;;;;;;5021616;28;20046;-85
2023/05/31 00:55:16;;;;;;;6.80;4.10;;;13.50;88.00;;;;;;5022701;28;20013;-86
2023/05/31 00:57:42;;;;;;;8.95;4.32;;;13.50;88.10;;;;;;5017768;28;20101;-86
2023/05/31 01:00:09;;;;;;;8.63;4.35;;;13.40;88.10;;;;;;5000927;28;20038;-85
2023/05/31 01:02:37;;;;;;;7.10;3.73;;;13.40;88.10;;;;;;5019068;28;20112;-86
2023/05/31 01:05:05;;;;;;;5.85;3.47;;;13.40;88.10;;;;;;5026651;28;20037;-87
2023/05/31 01:07:31;;;;;;;5.93;4.35;;;13.40;88.20;;;;;;5019536;28;20100;-85
2023/05/31 01:09:58;;;;;;;5.88;3.95;;;13.30;88.30;;;;;;5017542;28;20049;-84
2023/05/31 01:13:05;;;;;;;5.03;3.70;;;13.30;88.50;;;;;;5022293;28;20026;-85
2023/05/31 01:15:38;;;;;;;;;;;13.20;88.60;;;;;;4941460;29;20023;-83
2023/05/31 01:18:25;;;;;;;7.70;4.45;;;13.20;87.90;;;;;;4932388;29;19911;-85
2023/05/31 01:20:53;;;;;;;7.28;3.28;;;13.20;89.00;;;;;;4938580;29;20042;-85
2023/05/31 01:23:47;;;;;;;6.32;4.45;;;13.10;89.30;;;;;;4924295;29;20148;-83
2023/05/31 01:26:38;;;;;;;6.90;4.13;;;13.10;89.40;;;;;;4944370;29;20071;-83
2023/05/31 01:29:09;;;;;;;10.20;4.07;;;13.20;89.40;;;;;;4939572;29;20031;-87
2023/05/31 01:31:36;;;;;;;5.90;3.83;;;13.10;89.70;;;;;;4959117;28;20040;-85
2023/05/31 01:34:04;;;;;;;6.97;3.90;;;13.10;89.90;;;;;;4949174;29;20024;-87
2023/05/31 01:36:30;;;;;;;7.53;4.45;;;13.10;90.00;;;;;;4943786;29;20143;-85
2023/05/31 01:38:57;;;;;;;6.80;4.10;;;13.10;90.00;;;;;;4943852;29;20481;-86
2023/05/31 01:41:26;;;;;;;5.45;3.38;;;13.10;90.00;;;;;;4924379;29;20116;-86
2023/05/31 01:43:53;;;;;;;8.75;3.65;;;13.10;90.00;;;;;;4956083;29;20024;-87
2023/05/31 01:46:20;;;;;;;6.43;3.90;;;13.00;90.00;;;;;;4971479;28;20034;-86
2023/05/31 01:48:47;;;;;;;10.48;4.22;;;13.10;90.00;;;;;;5013617;28;20034;-86
2023/05/31 01:51:15;;;;;;;6.88;3.35;;;13.10;90.00;;;;;;4998759;28;20156;-86
2023/05/31 01:53:42;;;;;;;10.05;3.72;;;13.10;90.00;;;;;;5015944;28;20050;-86
2023/05/31 01:56:08;;;;;;;7.95;3.28;;;13.10;90.00;;;;;;4983991;28;20355;-86
2023/05/31 01:58:41;;;;;;;5.35;3.72;;;13.20;90.00;;;;;;5011576;28;20025;-85
2023/05/31 02:01:10;;;;;;;6.07;3.80;;;13.20;89.90;;;;;;5030852;28;20548;-84
2023/05/31 02:03:38;;;;;;;7.75;3.50;;;13.20;89.80;;;;;;5028255;28;20034;-84
2023/05/31 02:06:04;;;;;;;6.28;3.47;;;13.20;89.90;;;;;;5007812;28;20022;-86
2023/05/31 02:08:30;;;;;;;5.40;3.85;;;13.10;90.00;;;;;;4997823;28;20148;-86
2023/05/31 02:10:56;;;;;;;6.05;3.60;;;13.10;90.10;;;;;;5015030;28;20475;-84
2023/05/31 02:13:26;;;;;;;4.32;3.47;;;13.10;90.20;;;;;;4999178;28;20052;-84
2023/05/31 02:15:52;;;;;;;6.55;4.13;;;13.10;90.30;;;;;;5010747;28;20165;-84
2023/05/31 02:18:18;;;;;;;7.60;4.28;;;13.10;90.40;;;;;;5020635;28;20449;-86
2023/05/31 02:20:44;;;;;;;5.72;3.78;;;13.10;90.80;;;;;;5021656;28;20034;-86
2023/05/31 02:23:10;;;;;;;5.40;3.28;;;13.10;90.50;;;;;;5001042;28;20484;-85
2023/05/31 02:25:36;;;;;;;6.97;3.67;;;13.10;90.50;;;;;;5025653;28;20039;-86
2023/05/31 02:28:02;;;;;;;8.48;3.90;;;13.10;90.50;;;;;;5017808;28;20030;-85
2023/05/31 02:30:30;;;;;;;9.07;4.63;;;13.20;90.60;;;;;;5014514;28;20335;-85
2023/05/31 02:32:56;;;;;;;13.43;5.00;;;13.20;90.60;;;;;;5013935;28;20108;-87
2023/05/31 02:35:22;;;;;;;9.68;4.15;;;13.20;90.60;;;;;;5019865;28;20060;-85
2023/05/31 02:37:48;;;;;;;4.85;4.10;;;13.20;90.60;;;;;;5008367;28;20042;-85
2023/05/31 02:40:14;;;;;;;8.07;4.30;;;13.30;90.50;;;;;;5034624;28;20041;-84
2023/05/31 02:42:42;;;;;;;7.60;4.13;;;13.30;90.40;;;;;;5020549;28;20407;-85
2023/05/31 02:45:08;;;;;;;5.63;3.80;;;13.40;90.30;;;;;;4998335;28;20030;-85
2023/05/31 02:47:36;;;;;;;13.77;4.22;;;13.50;90.30;;;;;;5016664;28;20053;-85
2023/05/31 02:50:02;;;;;;;8.05;4.65;;;13.60;90.00;;;;;;5014510;28;20049;-86
2023/05/31 02:52:28;;;;;;;7.88;5.13;;;13.50;90.00;;;;;;5019432;28;20048;-87
2023/05/31 02:54:54;;;;;;;7.32;3.88;;;13.50;90.10;;;;;;5018349;28;20479;-85
2023/05/31 02:57:21;;;;;;;6.55;4.10;;;13.60;90.20;;;;;;5013793;28;20022;-86
2023/05/31 02:59:48;;;;;;;5.35;4.55;;;13.70;90.00;;;;;;5000651;28;20029;-84
2023/05/31 03:02:16;;;;;;;6.53;3.83;;;13.70;89.70;;;;;;5013688;28;20025;-84
2023/05/31 03:04:42;;;;;;;6.07;3.83;;;13.60;89.90;;;;;;5012471;28;20057;-86
2023/05/31 03:07:08;;;;;;;6.35;3.72;;;13.60;90.00;;;;;;5025428;28;20028;-85
2023/05/31 03:09:35;;;;;;;6.00;3.90;;;13.60;90.10;;;;;;5031142;28;20064;-84
2023/05/31 03:12:02;;;;;;;6.40;3.90;;;13.60;90.20;;;;;;5034138;28;20022;-85
2023/05/31 03:14:27;;;;;;;7.95;4.35;;;13.80;90.20;;;;;;5028462;28;20382;-84
2023/05/31 03:16:53;;;;;;;6.60;4.15;;;13.90;89.70;;;;;;5022729;28;20057;-85
2023/05/31 03:19:20;;;;;;;6.88;4.03;;;14.00;89.50;;;;;;5033471;28;20113;-84
2023/05/31 03:21:46;;;;;;;7.35;3.90;;;14.10;89.30;;;;;;5020914;28;20065;-85
2023/05/31 03:24:12;;;;;;;3.35;3.05;;;14.20;88.60;;;;;;5022870;28;20032;-85
2023/05/31 03:26:38;;;;;;;8.98;4.07;;;14.20;87.80;;;;;;5029961;28;20026;-84
2023/05/31 03:29:04;;;;;;;7.50;4.35;;;14.20;87.80;;;;;;5042893;28;20035;-85
2023/05/31 03:31:30;;;;;;;6.43;4.05;;;14.30;87.70;;;;;;5028421;28;20029;-85
2023/05/31 03:33:56;;;;;;;6.75;4.28;;;14.50;87.70;;;;;;5019356;28;20041;-85
2023/05/31 03:36:22;;;;;;;5.97;4.05;;;14.70;86.70;;;;;;5016880;28;20072;-88
2023/05/31 03:38:48;;;;;;;9.55;4.40;;;14.80;86.10;;;;;;5003964;28;20071;-87
2023/05/31 03:41:14;;;;;;;7.65;4.05;;;14.80;85.80;;;;;;5022854;28;20403;-84
2023/05/31 03:43:40;;;;;;;5.88;4.43;;;14.90;85.60;;;;;;5014612;28;20021;-85
2023/05/31 03:46:05;;;;;;;6.88;4.20;;;14.90;85.90;;;;;;5013820;28;20029;-86
2023/05/31 03:48:31;;;;;;;6.57;4.30;;;15.10;85.60;;;;;;5035791;28;20033;-85
2023/05/31 03:50:57;;;;;;;7.15;4.43;;;15.20;85.00;;;;;;5020081;28;20097;-84
2023/05/31 03:53:23;;;;;;;6.70;4.28;;;15.20;85.00;;;;;;5016419;28;20057;-85
2023/05/31 03:55:49;;;;;;;9.90;4.40;;;15.20;84.90;;;;;;5032070;28;20391;-85
2023/05/31 03:58:15;;;;;;;4.85;4.22;;;15.10;85.00;;;;;;5023911;28;20025;-86
2023/05/31 04:00:41;;;;;;;5.40;4.60;;;15.00;84.80;;;;;;5018645;28;20061;-86
2023/05/31 04:03:11;;;;;;;7.18;4.47;;;15.00;85.00;;;;;;5017614;28;20104;-86
2023/05/31 04:05:38;;;;;;;5.43;4.38;;;15.00;85.50;;;;;;5013086;28;20037;-87
2023/05/31 04:08:04;;;;;;;6.05;5.03;;;15.00;85.90;;;;;;5001363;28;20030;-87
2023/05/31 04:10:31;;;;;;;5.75;4.60;;;14.80;86.40;;;;;;5019886;28;20468;-86
2023/05/31 04:12:57;;;;;;;7.05;5.10;;;14.70;87.00;;;;;;5024028;28;20026;-85
2023/05/31 04:15:23;;;;;;;7.47;4.65;;;14.70;87.60;;;;;;5019539;28;20533;-86
2023/05/31 04:17:48;;;;;;;6.13;4.22;;;14.60;87.90;;;;;;5019928;28;20030;-86
2023/05/31 04:20:16;;;;;;;7.10;5.13;;;14.60;88.20;;;;;;5024443;28;20030;-85
2023/05/31 04:22:42;;;;;;;7.50;5.20;;;14.40;89.00;;;;;;5022354;28;20463;-87
2023/05/31 04:25:12;;;;;;;6.40;4.85;;;14.40;90.00;;;;;;5034349;28;20090;-84
2023/05/31 04:27:40;;;;;;;6.72;5.47;;;14.20;90.30;;;;;;5032732;28;20077;-85
2023/05/31 04:30:07;;;;;;;6.72;5.20;;;14.10;90.70;;;;;;5034606;28;20033;-83
2023/05/31 04:32:36;;;;;;;8.13;5.65;;;14.00;91.10;;;;;;5012273;28;20574;-83
2023/05/31 04:35:04;;;;;;;6.43;4.82;;;13.90;91.60;;;;;;5015258;28;20543;-84
2023/05/31 04:37:30;;;;;;;7.65;4.65;;;13.90;91.60;;;;;;5014848;28;20014;-85
2023/05/31 04:39:57;;;;;;;7.50;5.05;;;13.80;91.80;;;;;;5013845;28;20045;-84
2023/05/31 04:42:26;;;;;;;6.03;4.82;;;13.80;91.90;;;;;;4998208;28;20033;-84
2023/05/31 04:45:01;;;;;;;8.57;5.10;;;13.80;91.90;;;;;;5016477;28;20022;-84
2023/05/31 04:47:30;;;;;;;7.43;5.43;;;13.80;92.10;;;;;;5011720;28;20037;-83
2023/05/31 04:49:57;;;;;;;5.15;4.28;;;13.80;92.40;;;;;;5015897;28;20033;-85
2023/05/31 04:55:00;;;;;;;7.07;5.03;;;13.80;92.00;;;;;;5105916;27;1515413;-85
2023/05/31 04:57:28;;;;;;;8.10;5.05;;;13.70;92.50;;;;;;5118660;28;20054;-85
2023/05/31 04:59:56;;;;;;;7.60;5.68;;;13.70;92.40;;;;;;5114763;28;20027;-87
2023/05/31 05:02:22;;;;;;;5.80;4.55;;;13.60;92.40;;;;;;5103957;28;20079;-86
2023/05/31 05:04:48;;;;;;;6.97;5.20;;;13.60;92.50;;;;;;5135096;28;20045;-85
2023/05/31 05:07:16;;;;;;;5.43;4.78;;;13.50;92.80;;;;;;5127864;28;20024;-85
2023/05/31 05:09:42;;;;;;;;;;;13.40;93.00;;;;;;5118184;28;20027;-87
2023/05/31 05:12:09;;;;;;;5.03;4.43;;;13.40;92.60;;;;;;5116967;28;19910;-84
2023/05/31 05:14:35;;;;;;;10.10;4.67;;;13.30;93.10;;;;;;5112369;28;20115;-87
2023/05/31 05:17:01;;;;;;;7.30;4.75;;;13.30;93.30;;;;;;5118596;28;20473;-85
2023/05/31 05:19:27;;;;;;;6.30;3.85;;;13.30;93.50;;;;;;5130392;28;20031;-86
2023/05/31 05:21:54;;;;;;;3.28;2.83;;;13.40;93.00;;;;;;5146480;28;20053;-85
2023/05/31 05:24:19;;;;;;;3.95;2.97;;;13.30;92.90;;;;;;5133082;28;20069;-85
2023/05/31 05:26:45;;;;;;;3.22;2.50;;;13.20;92.70;;;;;;5124662;28;20023;-86
2023/05/31 05:29:11;;;;;;;4.78;2.85;;;13.10;92.80;;;;;;5126867;28;20089;-84
2023/05/31 05:31:37;;;;;;;3.78;2.70;;;13.00;93.00;;;;;;5125128;28;20039;-89
2023/05/31 05:34:03;;;;;;;5.50;2.88;;;13.00;93.20;;;;;;5127897;28;20496;-85
2023/05/31 05:36:29;;;;;;;4.38;3.17;;;13.00;93.30;;;;;;5112940;28;20125;-89
2023/05/31 05:39:03;;;;;;;4.85;2.90;;;13.00;93.40;;;;;;5101236;28;20111;-89
2023/05/31 05:41:30;;;;;;;5.82;3.50;;;12.90;93.50;;;;;;5115440;28;20039;-90
2023/05/31 05:43:55;;;;;;;5.47;3.60;;;13.00;93.60;;;;;;5128420;28;20111;-86
2023/05/31 05:46:21;;;;;;;4.07;2.83;;;13.00;93.70;;;;;;5138054;28;20548;-84
2023/05/31 05:48:47;;;;;;;7.25;4.35;;;13.00;93.90;;;;;;5129813;28;20043;-83
2023/05/31 05:51:13;;;;;;;9.45;6.93;;;13.10;94.10;;;;;;5117482;28;20468;-82
2023/05/31 05:53:39;;;;;;;14.18;8.35;;;13.10;94.60;;;;;;5113837;28;20044;-83
2023/05/31 05:56:05;;;;;;;13.13;6.90;;;13.10;94.90;;;;;;5101891;28;20019;-84
2023/05/31 05:58:31;;;;;;;6.85;5.40;;;13.10;95.20;;;;;;5117829;28;20103;-85
2023/05/31 06:00:58;;;;;;;6.20;4.90;;;13.10;95.40;;;;;;5110299;28;20121;-84
2023/05/31 06:03:23;;;;;;;8.63;6.50;;;13.10;95.50;;;;;;5122808;28;20537;-84
2023/05/31 06:05:50;;;;;;;11.32;5.82;;;13.10;95.70;;;;;;5106935;28;20032;-83
2023/05/31 06:08:16;;;;;;;8.63;6.05;;;13.00;95.90;;;;;;5088584;28;20024;-83
2023/05/31 06:10:42;;;;;;;8.38;5.75;;;12.90;96.00;;;;;;5081517;28;20473;-84
2023/05/31 06:13:08;;;;;;;6.25;5.32;;;12.80;96.30;;;;;;5077777;28;20036;-82
2023/05/31 06:15:34;;;;;;;10.07;5.47;;;12.60;96.60;;;;;;5097592;28;20093;-82
2023/05/31 06:18:00;;;;;;;6.38;5.03;;;12.50;97.20;;;;;;5107558;28;20031;-84
2023/05/31 06:20:26;;;;;;;8.57;5.68;;;12.40;97.60;;;;;;5102346;28;20027;-83
2023/05/31 06:22:53;;;;;;;9.43;4.70;;;12.40;98.10;;;;;;5104510;28;20024;-83
2023/05/31 06:25:20;;;;;;;6.45;5.00;;;12.40;98.60;;;;;;5102306;28;20045;-83
2023/05/31 06:27:46;;;;;;;7.78;4.97;;;12.40;99.00;;;;;;5096876;28;20020;-82
2023/05/31 06:30:15;;;;;;;7.10;4.60;;;12.40;99.30;;;;;;5095301;28;20020;-83
2023/05/31 06:32:41;;;;;;;4.32;3.92;;;12.40;99.60;;;;;;5110395;28;20077;-82
2023/05/31 06:35:07;;;;;;;6.22;4.15;;;12.30;99.80;;;;;;5106574;28;20026;-81
2023/05/31 06:37:33;;;;;;;7.22;4.55;;;12.20;99.90;;;;;;5090508;28;20058;-80
2023/05/31 06:39:59;;;;;;;6.40;4.53;;;12.20;99.90;;;;;;5104109;28;20101;-82
2023/05/31 06:42:25;;;;;;;9.15;4.85;;;12.20;99.90;;;;;;5104234;28;20466;-83
2023/05/31 06:44:51;;;;;;;6.20;4.40;;;12.20;99.90;;;;;;5110359;28;20020;-83
2023/05/31 06:47:17;;;;;;;10.20;5.32;;;12.20;99.90;;;;;;5113355;28;20024;-84
2023/05/31 06:49:43;;;;;;;5.78;4.13;;;12.20;99.90;;;;;;5095235;28;20431;-84
2023/05/31 06:52:10;;;;;;;7.35;4.40;;;12.20;99.90;;;;;;5109026;28;20028;-83
2023/05/31 06:54:37;;;;;;;7.80;4.65;;;12.10;99.90;;;;;;5104745;28;20232;-83
2023/05/31 06:57:04;;;;;;;9.45;5.47;;;12.10;99.90;;;;;;5110667;28;20118;-82
2023/05/31 06:59:30;;;;;;;6.20;5.60;;;12.10;99.90;;;;;;5103233;28;20027;-84
2023/05/31 07:01:59;;;;;;;9.55;6.05;;;12.10;99.90;;;;;;5100945;28;20020;-81
2023/05/31 07:04:25;;;;;;;7.65;4.82;;;12.10;99.90;;;;;;5090475;28;20024;-82
2023/05/31 07:06:51;;;;;;;8.75;5.18;;;12.10;99.90;;;;;;5089663;28;20027;-83
2023/05/31 07:09:17;;;;;;;6.95;5.65;;;12.00;99.90;;;;;;5096667;28;20051;-83
2023/05/31 07:11:43;;;;;;;5.47;4.75;;;12.10;99.90;;;;;;5078171;28;20527;-83
2023/05/31 07:14:09;;;;;;;7.93;4.68;;;12.00;99.90;;;;;;5102360;28;20493;-83
2023/05/31 07:16:35;;;;;;;9.25;5.60;;;12.00;99.90;;;;;;5109730;28;20020;-83
2023/05/31 07:19:02;;;;;;;7.25;4.28;;;12.10;99.90;;;;;;5095631;28;20054;-83
2023/05/31 07:21:28;;;;;;;5.93;4.50;;;12.10;99.90;;;;;;5094701;28;20024;-85
2023/05/31 07:23:55;;;;;;;6.88;4.93;;;12.10;99.90;;;;;;5089275;28;20117;-82
2023/05/31 07:26:22;;;;;;;5.43;3.85;;;12.10;99.90;;;;;;5094968;28;20017;-84
2023/05/31 07:28:48;;;;;;;4.17;3.33;;;12.20;99.90;;;;;;5093830;28;20036;-83
2023/05/31 07:31:17;;;;;;;6.82;3.70;;;12.20;99.90;;;;;;5090547;28;20020;-83
2023/05/31 07:33:43;;;;;;;5.40;4.00;;;12.20;99.90;;;;;;5106631;28;20036;-83
2023/05/31 07:36:09;;;;;;;12.15;4.30;;;12.20;99.90;;;;;;5096926;28;20035;-82
2023/05/31 07:38:35;;;;;;;4.72;3.85;;;12.40;99.90;;;;;;5102183;28;20069;-85
2023/05/31 07:41:01;;;;;;;6.22;4.07;;;12.80;99.90;;;;;;5093863;28;20027;-83
2023/05/31 07:43:29;;;;;;;6.90;3.92;;;13.10;99.90;;;;;;5096616;28;20024;-84
2023/05/31 07:45:56;;;;;;;;;;;13.20;99.90;;;;;;5105138;28;20081;-82
2023/05/31 07:48:23;;;;;;;8.48;4.13;;;13.10;99.90;;;;;;5099647;28;19904;-83
2023/05/31 07:50:50;;;;;;;8.40;4.15;;;13.10;99.90;;;;;;5094446;28;20034;-83
2023/05/31 07:53:16;;;;;;;5.10;3.08;;;13.00;99.90;;;;;;5108662;28;20044;-83
2023/05/31 07:55:43;;;;;;;5.78;3.47;;;12.90;99.90;;;;;;5113655;28;20015;-82
2023/05/31 07:58:11;;;;;;;6.10;3.90;;;12.90;99.90;;;;;;5111548;28;20027;-82
2023/05/31 08:00:39;;;;;;;8.27;4.13;;;13.20;99.90;;;;;;5109988;28;20032;-83
2023/05/31 08:03:05;;;;;;;3.90;2.58;;;13.50;99.80;;;;;;5087000;28;20026;-85
2023/05/31 08:05:32;;;;;;;4.05;2.78;;;13.70;99.20;;;;;;5104720;28;20111;-83
2023/05/31 08:07:59;;;;;;;4.13;3.00;;;13.80;98.80;;;;;;5094067;28;20091;-83
2023/05/31 08:10:25;;;;;;;4.78;3.15;;;13.90;97.80;;;;;;5097868;28;20404;-85
2023/05/31 08:12:51;;;;;;;4.10;2.20;;;14.10;97.70;;;;;;5084541;28;20342;-83
2023/05/31 08:15:17;;;;;;;4.30;2.72;;;14.80;97.10;;;;;;5102114;28;20055;-84
2023/05/31 08:17:43;;;;;;;4.18;2.72;;;15.70;96.10;;;;;;5091264;28;20028;-85
2023/05/31 08:20:11;;;;;;;5.18;3.20;;;16.30;93.40;;;;;;5105998;28;20058;-82
2023/05/31 08:22:37;;;;;;;5.03;2.88;;;16.40;93.50;;;;;;5104106;28;20031;-84
2023/05/31 08:25:04;;;;;;;9.73;3.78;;;16.10;92.50;;;;;;5108187;28;20020;-85
2023/05/31 08:27:30;;;;;;;5.60;3.15;;;15.80;93.00;;;;;;5113883;28;20322;-84
2023/05/31 08:29:56;;;;;;;4.05;2.33;;;15.70;92.60;;;;;;5096266;28;20456;-84
2023/05/31 08:32:21;;;;;;;3.47;2.60;;;15.30;92.50;;;;;;5077854;28;20032;-83
2023/05/31 08:34:47;;;;;;;6.05;2.85;;;14.90;93.00;;;;;;5111928;28;20127;-84
2023/05/31 08:37:13;;;;;;;4.22;2.03;;;14.60;93.50;;;;;;5098399;28;20020;-83
2023/05/31 08:39:39;;;;;;;3.60;2.53;;;14.20;93.80;;;;;;5098317;28;20020;-84
2023/05/31 08:42:22;;;;;;;4.38;2.72;;;13.90;94.30;;;;;;5099929;28;20020;-83
2023/05/31 08:44:48;;;;;;;4.30;2.47;;;13.80;94.70;;;;;;5094097;28;20019;-84
2023/05/31 08:47:28;;;;;;;4.65;1.98;;;13.60;95.10;;;;;;5107360;28;20062;-83
2023/05/31 08:49:55;;;;;;;4.22;2.92;;;13.40;95.10;;;;;;5079120;28;20512;-83
2023/05/31 08:52:22;;;;;;;6.05;2.90;;;13.20;95.40;;;;;;5097038;28;20020;-82
2023/05/31 08:54:50;;;;;;;3.60;2.20;;;13.10;95.70;;;;;;5078481;28;20043;-82
2023/05/31 08:57:16;;;;;;;4.88;3.28;;;13.10;95.80;;;;;;5078853;28;20016;-84
2023/05/31 08:59:44;;;;;;;3.53;2.27;;;13.10;96.00;;;;;;5093915;28;20020;-83
2023/05/31 09:02:12;;;;;;;3.05;2.33;;;13.00;95.80;;;;;;5075824;28;20030;-82
2023/05/31 09:04:40;;;;;;;2.97;2.20;;;12.90;95.80;;;;;;5104420;28;20024;-82
2023/05/31 09:07:06;;;;;;;3.30;2.55;;;12.70;96.20;;;;;;5115205;28;20022;-83
2023/05/31 09:09:32;;;;;;;3.25;2.47;;;12.70;96.00;;;;;;5107408;28;20053;-82
2023/05/31 09:12:00;;;;;;;7.28;2.83;;;12.50;96.40;;;;;;5115956;28;20065;-82
2023/05/31 09:14:26;;;;;;;3.95;2.70;;;12.50;96.30;;;;;;5094327;28;20024;-84
2023/05/31 09:16:52;;;;;;;3.03;2.60;;;12.50;96.10;;;;;;5101958;28;20115;-84
2023/05/31 09:19:18;;;;;;;3.25;2.38;;;12.40;96.10;;;;;;5097250;28;20047;-84
2023/05/31 09:21:45;;;;;;;5.10;3.78;;;12.30;96.30;;;;;;5106239;28;20540;-83
2023/05/31 09:24:14;;;;;;;4.78;2.60;;;12.20;96.60;;;;;;5113641;28;20024;-82
2023/05/31 09:26:50;;;;;;;3.45;2.75;;;12.20;96.70;;;;;;5096384;28;20380;-82
2023/05/31 09:29:17;;;;;;;5.40;3.20;;;12.10;96.90;;;;;;5098090;28;20054;-84
2023/05/31 09:31:44;;;;;;;4.40;2.88;;;12.10;96.90;;;;;;5108071;28;20032;-83
2023/05/31 09:34:29;;;;;;;3.88;2.67;;;12.10;96.80;;;;;;5101155;28;20077;-83
2023/05/31 09:37:01;;;;;;;4.07;2.38;;;12.00;96.60;;;;;;5105322;28;20019;-83
2023/05/31 09:39:28;;;;;;;4.05;2.88;;;12.00;96.50;;;;;;5089568;28;20025;-83
2023/05/31 09:41:57;;;;;;;7.30;2.75;;;11.90;96.60;;;;;;5106833;28;20043;-83
2023/05/31 09:44:27;;;;;;;7.35;3.70;;;12.00;96.70;;;;;;5096107;28;20115;-84
2023/05/31 09:46:53;;;;;;;7.63;3.08;;;12.00;96.50;;;;;;5098778;28;20841;-84
2023/05/31 09:49:20;;;;;;;4.40;3.47;;;12.00;96.30;;;;;;5108381;28;20028;-83
2023/05/31 09:51:52;;;;;;;10.38;4.32;;;12.00;96.20;;;;;;5092614;28;20445;-83
2023/05/31 09:54:22;;;;;;;8.02;3.20;;;12.20;96.20;;;;;;5104401;28;20051;-84
2023/05/31 09:56:49;;;;;;;6.38;3.42;;;12.20;95.80;;;;;;5101262;28;20054;-83
2023/05/31 09:59:15;;;;;;;4.25;3.22;;;12.10;95.50;;;;;;5108435;28;20375;-83
2023/05/31 10:01:42;;;;;;;4.90;3.03;;;12.20;95.60;;;;;;5109412;28;20054;-83
2023/05/31 10:04:08;;;;;;;4.78;2.97;;;12.10;95.20;;;;;;5115200;28;20020;-83
2023/05/31 10:06:37;;;;;;;5.75;3.90;;;12.00;95.30;;;;;;5101822;28;20104;-85
2023/05/31 10:09:07;;;;;;;7.93;3.50;;;12.00;95.40;;;;;;5110797;28;20028;-84
2023/05/31 10:11:37;;;;;;;6.15;3.55;;;12.10;95.50;;;;;;5096847;28;20106;-81
2023/05/31 10:14:16;;;;;;;5.22;3.22;;;12.10;95.40;;;;;;5098235;28;20040;-84
2023/05/31 10:16:48;;;;;;;6.20;3.00;;;12.20;95.30;;;;;;5106904;28;20047;-84
2023/05/31 10:19:24;;;;;;;3.55;2.83;;;12.30;94.90;;;;;;5114053;28;20046;-83
2023/05/31 10:21:50;;;;;;;5.50;2.67;;;12.20;94.40;;;;;;5092901;28;20035;-82
2023/05/31 10:24:49;;;;;;;5.00;3.05;;;12.20;94.20;;;;;;5099513;28;20028;-83
2023/05/31 10:27:22;;;;;;;3.90;3.15;;;12.10;94.40;;;;;;5087412;28;20464;-84
2023/05/31 10:29:52;;;;;;;4.05;3.05;;;12.10;94.60;;;;;;5110496;28;20473;-84
2023/05/31 10:32:29;;;;;;;4.53;2.85;;;12.10;94.50;;;;;;5104209;28;20103;-84
2023/05/31 10:34:55;;;;;;;4.22;3.20;;;12.00;94.50;;;;;;5096149;28;20024;-84
2023/05/31 10:37:23;;;;;;;4.35;3.25;;;11.90;94.50;;;;;;5096488;28;20040;-83
2023/05/31 10:39:58;;;;;;;8.07;3.70;;;11.90;94.50;;;;;;5110702;28;20016;-83
2023/05/31 10:42:23;;;;;;;6.05;3.85;;;11.90;94.90;;;;;;5099205;28;20024;-83
2023/05/31 10:45:21;;;;;;;5.00;3.47;;;11.90;95.30;;;;;;5101197;28;20567;-84
2023/05/31 10:48:21;;;;;;;8.02;4.32;;;12.00;95.60;;;;;;5108247;28;20027;-82
2023/05/31 10:51:01;;;;;;;4.53;3.50;;;12.10;95.70;;;;;;5041119;28;20019;-83
2023/05/31 10:53:34;;;;;;;6.35;4.05;;;12.10;95.50;;;;;;5115520;28;20036;-84
2023/05/31 10:56:10;;;;;;;8.95;4.45;;;12.00;95.60;;;;;;5098025;28;20066;-84
2023/05/31 10:58:41;;;;;;;5.57;4.35;;;12.00;95.90;;;;;;5093808;28;20020;-83
2023/05/31 11:01:14;;;;;;;5.95;4.07;;;12.00;96.00;;;;;;5114208;28;20024;-86
2023/05/31 11:03:49;;;;;;;6.88;4.85;;;11.90;96.30;;;;;;5110996;28;20024;-83
2023/05/31 11:06:19;;;;;;;6.00;4.70;;;11.70;96.60;;;;;;5113534;28;20051;-83
2023/05/31 11:08:58;;;;;;;6.90;5.30;;;11.60;97.10;;;;;;5111590;28;20385;-83
2023/05/31 11:11:42;;;;;;;7.28;4.45;;;11.50;97.60;;;;;;5077776;28;20031;-84
2023/05/31 11:14:27;;;;;;;12.90;4.65;;;11.30;98.20;;;;;;5097714;28;20055;-84
2023/05/31 11:16:53;;;;;;;7.35;4.57;;;11.20;98.70;;;;;;5104213;28;20028;-86
2023/05/31 11:19:27;;;;;;;6.80;4.30;;;11.10;99.10;;;;;;5094885;28;20051;-85
2023/05/31 11:21:55;;;;;;;7.85;4.70;;;11.10;99.20;;;;;;5094584;28;20111;-84
2023/05/31 11:24:36;;;;;;;9.73;4.95;;;11.00;99.50;;;;;;5097274;28;20081;-83
2023/05/31 11:27:03;;;;;;;7.22;3.90;;;11.00;99.60;;;;;;5104683;28;20495;-83
2023/05/31 11:29:52;;;;;;;6.68;5.07;;;10.80;99.30;;;;;;5091336;28;20032;-83
2023/05/31 11:32:22;;;;;;;9.50;4.50;;;10.80;99.50;;;;;;5092763;28;20423;-84
2023/05/31 11:34:58;;;;;;;10.13;5.82;;;10.80;99.90;;;;;;5116000;28;20031;-83
2023/05/31 11:37:29;;;;;;;10.70;5.40;;;10.90;99.90;;;;;;5088821;28;20024;-84
2023/05/31 11:39:56;;;;;;;8.15;4.57;;;11.00;99.80;;;;;;5094980;28;20069;-82
2023/05/31 11:42:25;;;;;;;9.73;5.00;;;11.00;99.60;;;;;;5087924;28;20046;-82
2023/05/31 11:44:52;;;;;;;8.70;5.05;;;11.00;99.50;;;;;;5100505;28;20027;-84
2023/05/31 11:47:20;;;;;;;8.98;5.07;;;11.00;99.50;;;;;;5093989;28;20389;-83
2023/05/31 11:49:46;;;;;;;6.38;4.78;;;11.00;99.30;;;;;;5110351;28;20054;-83
2023/05/31 11:52:16;;;;;;;5.15;3.60;;;11.10;99.10;;;;;;5101593;28;20326;-81
2023/05/31 11:54:44;;;;;;;7.93;4.15;;;11.10;98.50;;;;;;5101016;28;20048;-84
2023/05/31 11:57:10;;;;;;;;;;;11.10;97.90;;;;;;5095916;28;20214;-85
2023/05/31 11:59:37;;;;;;;6.00;3.65;;;11.10;97.80;;;;;;5096882;28;20378;-83
2023/05/31 12:02:07;;;;;;;7.00;3.83;;;11.20;97.70;;;;;;5103705;28;20031;-83
2023/05/31 12:04:38;;;;;;;7.60;3.55;;;11.20;97.40;;;;;;5115953;28;20034;-84
2023/05/31 12:07:11;;;;;;;5.43;3.90;;;11.30;96.40;;;;;;5100599;28;20054;-82
2023/05/31 12:09:37;;;;;;;13.88;4.43;;;11.40;96.50;;;;;;5088389;28;20027;-84
2023/05/31 12:12:07;;;;;;;7.72;4.72;;;11.40;96.20;;;;;;5094583;28;20455;-85
2023/05/31 12:14:34;;;;;;;5.85;4.18;;;11.50;96.20;;;;;;5095001;28;20070;-83
2023/05/31 12:17:10;;;;;;;4.25;3.58;;;11.70;95.80;;;;;;5094894;28;20107;-83
2023/05/31 12:19:36;;;;;;;4.43;3.13;;;11.70;94.70;;;;;;5108542;28;20024;-81
2023/05/31 12:22:02;;;;;;;9.18;3.40;;;11.70;94.00;;;;;;5093734;28;20032;-83
2023/05/31 12:24:28;;;;;;;5.72;3.00;;;11.70;93.90;;;;;;5079143;28;20385;-82
2023/05/31 12:26:54;;;;;;;5.32;3.28;;;11.70;93.20;;;;;;5113785;28;20032;-83
2023/05/31 12:29:28;;;;;;;4.50;2.67;;;11.80;93.30;;;;;;5098304;28;20020;-84
2023/05/31 12:32:05;;;;;;;5.70;3.95;;;11.70;93.20;;;;;;5093417;28;20055;-83
2023/05/31 12:34:34;;;;;;;6.03;3.25;;;11.60;94.20;;;;;;5095034;28;20035;-83
2023/05/31 12:37:06;;;;;;;6.43;3.17;;;11.70;94.00;;;;;;5104730;28;20501;-84
2023/05/31 12:39:36;;;;;;;6.75;3.78;;;11.60;93.80;;;;;;5093117;28;20059;-84
2023/05/31 12:42:05;;;;;;;6.63;4.55;;;11.50;94.40;;;;;;5089977;28;20023;-83
2023/05/31 12:44:31;;;;;;;7.50;4.38;;;11.50;94.80;;;;;;5124161;28;20019;-83
2023/05/31 12:47:08;;;;;;;7.38;4.32;;;11.70;94.70;;;;;;5098831;28;20024;-83
2023/05/31 12:49:36;;;;;;;7.93;3.75;;;11.70;94.30;;;;;;5096274;28;20400;-84
2023/05/31 12:52:07;;;;;;;6.03;3.58;;;11.70;94.20;;;;;;5094453;28;20020;-83
2023/05/31 12:54:35;;;;;;;3.15;2.80;;;11.80;93.60;;;;;;5095001;28;20052;-84
2023/05/31 12:57:03;;;;;;;7.47;3.95;;;11.70;92.90;;;;;;5111720;28;20058;-83